Time;durP1;ratioP1;P1;durP2;ratioP2;P2;SDS_P1;SDS_P2;PMS_P1;PMS_P2;Temp;Humidity;BMP_temperature;BMP_pressure;BME280_temperature;BME280_humidity;BME280_pressure;Samples;Min_cycle;Max_cycle;Signal;HPM_P1;HPM_P2
2023/04/22 00:01:16;;;;;;;7.10;5.50;;;;;;;;;;5015376;28;20050;-91
2023/04/22 00:03:44;;;;;;;7.63;6.85;;;;;;;;;;4998087;28;20466;-90
2023/04/22 00:06:11;;;;;;;8.25;6.32;;;;;;;;;;4997871;28;20050;-91
2023/04/22 00:08:39;;;;;;;11.18;6.38;;;;;;;;;;5015253;28;20137;-91
2023/04/22 00:11:06;;;;;;;12.15;6.50;;;;;;;;;;5015267;28;20056;-91
2023/04/22 00:13:33;;;;;;;8.20;5.90;;;;;;;;;;5015129;28;20060;-91
2023/04/22 00:16:00;;;;;;;12.52;6.53;;;;;;;;;;4997630;28;20141;-89
2023/04/22 00:18:27;;;;;;;8.77;7.18;;;;;;;;;;4997869;28;20050;-91
2023/04/22 00:20:55;;;;;;;10.10;6.25;;;;;;;;;;5015095;28;20407;-91
2023/04/22 00:23:22;;;;;;;9.02;6.78;;;;;;;;;;4997587;28;20058;-90
2023/04/22 00:25:49;;;;;;;7.90;6.47;;;;;;;;;;5014937;28;20129;-91
2023/04/22 00:28:16;;;;;;;8.40;6.43;;;;;;;;;;4997431;28;20411;-91
2023/04/22 00:30:43;;;;;;;11.40;6.13;;;;;;;;;;4997475;28;20065;-90
2023/04/22 00:33:10;;;;;;;8.75;6.53;;;;;;;;;;4997398;28;20137;-91
2023/04/22 00:35:38;;;;;;;12.77;6.65;;;;;;;;;;4997332;28;20073;-91
2023/04/22 00:38:05;;;;;;;7.07;6.07;;;;;;;;;;5014931;28;20041;-91
2023/04/22 00:40:32;;;;;;;11.55;5.88;;;;;;;;;;4997765;28;20107;-91
2023/04/22 00:43:00;;;;;;;10.70;6.13;;;;;;;;;;4997658;28;20045;-91
2023/04/22 00:45:27;;;;;;;11.05;7.00;;;;;;;;;;4997343;28;20061;-91
2023/04/22 00:47:54;;;;;;;8.77;6.07;;;;;;;;;;4997473;28;20054;-91
2023/04/22 00:50:21;;;;;;;10.95;6.63;;;;;;;;;;4997725;28;20049;-90
2023/04/22 00:52:49;;;;;;;11.32;6.70;;;;;;;;;;4997311;28;20050;-90
2023/04/22 00:55:16;;;;;;;8.77;6.30;;;;;;;;;;4997155;28;20050;-90
2023/04/22 00:57:44;;;;;;;10.10;6.35;;;;;;;;;;5014653;28;20058;-90
2023/04/22 01:00:11;;;;;;;11.43;6.60;;;;;;;;;;5014484;28;20054;-91
2023/04/22 01:02:38;;;;;;;10.40;6.80;;;;;;;;;;4997277;28;20054;-91
2023/04/22 01:05:08;;;;;;;9.65;6.72;;;;;;;;;;5014221;28;20052;-91
2023/04/22 01:07:35;;;;;;;7.55;6.00;;;;;;;;;;4997244;28;20112;-90
2023/04/22 01:10:04;;;;;;;8.15;6.22;;;;;;;;;;4997327;28;20050;-90
2023/04/22 01:12:31;;;;;;;9.75;6.40;;;;;;;;;;4997043;28;20068;-91
2023/04/22 01:14:58;;;;;;;12.27;6.88;;;;;;;;;;5013926;28;20056;-90
2023/04/22 01:17:30;;;;;;;13.20;6.47;;;;;;;;;;5014240;28;20057;-91
2023/04/22 01:19:58;;;;;;;8.27;6.30;;;;;;;;;;4996924;28;20137;-91
2023/04/22 01:22:26;;;;;;;12.18;6.93;;;;;;;;;;5014072;28;20042;-91
2023/04/22 01:24:54;;;;;;;10.95;6.53;;;;;;;;;;4996747;28;20045;-91
2023/04/22 01:27:21;;;;;;;8.82;6.70;;;;;;;;;;4996879;28;20046;-90
2023/04/22 01:29:48;;;;;;;10.02;6.25;;;;;;;;;;5013810;28;20069;-90
2023/04/22 01:32:15;;;;;;;9.20;6.80;;;;;;;;;;4996689;28;20050;-91
2023/04/22 01:34:43;;;;;;;9.98;7.05;;;;;;;;;;4996534;28;20045;-91
2023/04/22 01:37:11;;;;;;;11.15;6.65;;;;;;;;;;4996126;28;20050;-90
2023/04/22 01:39:38;;;;;;;10.32;6.88;;;;;;;;;;4996552;28;20056;-91
2023/04/22 01:42:06;;;;;;;12.88;6.18;;;;;;;;;;5013556;28;20046;-91
2023/04/22 01:44:33;;;;;;;13.20;6.78;;;;;;;;;;4996525;28;20049;-91
2023/04/22 01:47:00;;;;;;;7.35;6.65;;;;;;;;;;4995871;28;20097;-90
2023/04/22 01:49:27;;;;;;;11.98;6.75;;;;;;;;;;4996272;28;20041;-90
2023/04/22 01:51:54;;;;;;;7.93;6.72;;;;;;;;;;5013575;28;20050;-90
2023/04/22 01:54:21;;;;;;;8.30;6.80;;;;;;;;;;4996539;28;20060;-90
2023/04/22 01:56:50;;;;;;;8.70;6.57;;;;;;;;;;4996208;28;20092;-90
2023/04/22 01:59:18;;;;;;;11.70;7.15;;;;;;;;;;4995052;28;20081;-91
2023/04/22 02:01:45;;;;;;;9.60;6.40;;;;;;;;;;4996293;28;20050;-90
2023/04/22 02:04:13;;;;;;;13.88;7.13;;;;;;;;;;5013397;28;20056;-91
2023/04/22 02:06:40;;;;;;;10.35;7.35;;;;;;;;;;5013532;28;20410;-90
2023/04/22 02:09:07;;;;;;;9.25;7.00;;;;;;;;;;5013425;28;20109;-90
2023/04/22 02:11:34;;;;;;;12.70;7.25;;;;;;;;;;4995913;28;20498;-90
2023/04/22 02:14:01;;;;;;;11.15;6.50;;;;;;;;;;4996166;28;20392;-90
2023/04/22 02:16:29;;;;;;;9.38;6.65;;;;;;;;;;5013408;28;20410;-90
2023/04/22 02:18:56;;;;;;;8.98;6.85;;;;;;;;;;4995881;28;20065;-90
2023/04/22 02:21:24;;;;;;;8.95;7.45;;;;;;;;;;4995927;28;20064;-90
2023/04/22 02:23:51;;;;;;;8.18;6.85;;;;;;;;;;5013090;28;20414;-92
2023/04/22 02:26:18;;;;;;;9.63;7.00;;;;;;;;;;4996306;28;20097;-90
2023/04/22 02:28:45;;;;;;;8.27;6.40;;;;;;;;;;4995945;28;20057;-91
2023/04/22 02:31:12;;;;;;;12.20;7.25;;;;;;;;;;4995944;28;20156;-90
2023/04/22 02:33:40;;;;;;;6.95;6.18;;;;;;;;;;4995799;28;20050;-91
2023/04/22 02:36:07;;;;;;;11.85;6.90;;;;;;;;;;4996226;28;20042;-93
2023/04/22 02:38:34;;;;;;;14.13;6.93;;;;;;;;;;4996097;28;20120;-90
2023/04/22 02:41:01;;;;;;;9.80;6.57;;;;;;;;;;4996006;28;20490;-90
2023/04/22 02:43:29;;;;;;;11.95;6.85;;;;;;;;;;5013268;28;20140;-92
2023/04/22 02:45:56;;;;;;;9.93;6.72;;;;;;;;;;4995647;28;20046;-92
2023/04/22 02:48:23;;;;;;;17.42;7.90;;;;;;;;;;5013390;28;20046;-90
2023/04/22 02:50:50;;;;;;;8.00;7.07;;;;;;;;;;5013129;28;20048;-91
2023/04/22 02:53:17;;;;;;;11.10;7.15;;;;;;;;;;5013238;28;20053;-90
2023/04/22 02:55:45;;;;;;;14.70;7.80;;;;;;;;;;4995633;28;20052;-90
2023/04/22 02:58:12;;;;;;;12.52;7.53;;;;;;;;;;4998541;28;20050;-89
2023/04/22 03:00:39;;;;;;;10.43;7.00;;;;;;;;;;5016604;28;20050;-90
2023/04/22 03:03:06;;;;;;;9.57;7.35;;;;;;;;;;4999011;28;20050;-90
2023/04/22 03:05:34;;;;;;;10.85;7.38;;;;;;;;;;5016432;28;20132;-90
2023/04/22 03:08:01;;;;;;;9.35;6.85;;;;;;;;;;4999233;28;20050;-91
2023/04/22 03:10:28;;;;;;;13.50;7.40;;;;;;;;;;5016429;28;20054;-90
2023/04/22 03:12:55;;;;;;;13.02;7.70;;;;;;;;;;4998976;28;20050;-91
2023/04/22 03:15:25;;;;;;;10.48;7.53;;;;;;;;;;5015992;28;20105;-90
2023/04/22 03:17:52;;;;;;;10.82;6.82;;;;;;;;;;5016308;28;20042;-90
2023/04/22 03:20:19;;;;;;;7.13;6.15;;;;;;;;;;4998993;28;20050;-91
2023/04/22 03:22:47;;;;;;;13.90;7.72;;;;;;;;;;4998710;28;20052;-91
2023/04/22 03:25:14;;;;;;;11.48;7.30;;;;;;;;;;5015959;28;20061;-91
2023/04/22 03:27:41;;;;;;;12.13;6.95;;;;;;;;;;5016111;28;20100;-91
2023/04/22 03:30:09;;;;;;;10.13;6.53;;;;;;;;;;5015711;28;20057;-91
2023/04/22 03:32:36;;;;;;;11.43;7.53;;;;;;;;;;5016040;28;20046;-91
2023/04/22 03:35:04;;;;;;;15.70;8.38;;;;;;;;;;5015262;28;20056;-90
2023/04/22 03:37:31;;;;;;;12.02;7.75;;;;;;;;;;4998826;28;20050;-91
2023/04/22 03:39:58;;;;;;;10.63;7.28;;;;;;;;;;5015604;28;20418;-90
2023/04/22 03:42:26;;;;;;;10.43;7.68;;;;;;;;;;4998337;28;20050;-91
2023/04/22 03:44:53;;;;;;;12.73;7.80;;;;;;;;;;5015622;28;20045;-90
2023/04/22 03:47:20;;;;;;;10.82;7.13;;;;;;;;;;4998645;28;20510;-91
2023/04/22 03:49:48;;;;;;;9.13;6.85;;;;;;;;;;4998617;28;20054;-91
2023/04/22 03:52:15;;;;;;;14.05;7.82;;;;;;;;;;5015867;28;20517;-90
2023/04/22 03:54:42;;;;;;;9.40;7.68;;;;;;;;;;5015361;28;20410;-91
2023/04/22 03:57:09;;;;;;;8.88;7.93;;;;;;;;;;4998413;28;20054;-91
2023/04/22 03:59:36;;;;;;;11.70;8.10;;;;;;;;;;4998511;28;20053;-91
2023/04/22 04:02:06;;;;;;;10.82;7.90;;;;;;;;;;5015369;28;20058;-91
2023/04/22 04:04:33;;;;;;;9.55;7.78;;;;;;;;;;5015271;28;20057;-91
2023/04/22 04:07:01;;;;;;;11.18;8.52;;;;;;;;;;4998198;28;20145;-90
2023/04/22 04:09:29;;;;;;;16.15;9.18;;;;;;;;;;4997454;28;20154;-91
2023/04/22 04:11:56;;;;;;;15.98;9.77;;;;;;;;;;4997806;28;20525;-90
2023/04/22 04:14:24;;;;;;;14.38;8.52;;;;;;;;;;4997811;28;20050;-91
2023/04/22 04:16:51;;;;;;;12.20;8.07;;;;;;;;;;4997994;28;20093;-91
2023/04/22 04:19:18;;;;;;;15.25;7.85;;;;;;;;;;4998020;28;20053;-92
2023/04/22 04:21:45;;;;;;;19.00;7.63;;;;;;;;;;4997676;28;20049;-91
2023/04/22 04:24:13;;;;;;;8.65;7.35;;;;;;;;;;4997585;28;20061;-90
2023/04/22 04:26:40;;;;;;;15.93;7.20;;;;;;;;;;5014898;28;20054;-90
2023/04/22 04:29:07;;;;;;;9.45;6.88;;;;;;;;;;4997818;28;20046;-91
2023/04/22 04:31:35;;;;;;;9.88;7.22;;;;;;;;;;4997546;28;20137;-91
2023/04/22 04:34:02;;;;;;;11.80;7.60;;;;;;;;;;4997584;28;20053;-90
2023/04/22 04:36:31;;;;;;;8.80;7.90;;;;;;;;;;4997621;28;20045;-91
2023/04/22 04:38:58;;;;;;;11.90;7.90;;;;;;;;;;4997222;28;20141;-91
2023/04/22 04:41:26;;;;;;;28.17;8.40;;;;;;;;;;5014638;28;20053;-91
2023/04/22 04:43:54;;;;;;;15.75;8.23;;;;;;;;;;4997158;28;20137;-91
2023/04/22 04:46:21;;;;;;;15.88;8.40;;;;;;;;;;4997368;28;20546;-91
2023/04/22 04:48:52;;;;;;;16.52;10.05;;;;;;;;;;5014447;28;20060;-91
2023/04/22 04:51:20;;;;;;;15.82;10.98;;;;;;;;;;4997328;28;20050;-91
2023/04/22 04:53:47;;;;;;;15.70;10.95;;;;;;;;;;4997283;28;20046;-91
2023/04/22 04:56:15;;;;;;;17.83;13.80;;;;;;;;;;4997182;28;20562;-91
2023/04/22 04:58:42;;;;;;;22.83;15.82;;;;;;;;;;5014385;28;20132;-91
2023/04/22 05:01:09;;;;;;;31.98;17.25;;;;;;;;;;4996890;28;20050;-92
2023/04/22 05:03:37;;;;;;;21.83;17.17;;;;;;;;;;4996689;28;20080;-91
2023/04/22 05:06:04;;;;;;;17.45;15.60;;;;;;;;;;5014189;28;20054;-91
2023/04/22 05:08:31;;;;;;;16.52;13.63;;;;;;;;;;4997039;28;20046;-90
2023/04/22 05:10:59;;;;;;;14.60;11.23;;;;;;;;;;5014039;28;20088;-90
2023/04/22 05:13:26;;;;;;;14.55;9.30;;;;;;;;;;5014209;28;20133;-91
2023/04/22 05:15:53;;;;;;;10.35;8.43;;;;;;;;;;5014036;28;20050;-90
2023/04/22 05:18:21;;;;;;;11.52;6.78;;;;;;;;;;5014184;28;20173;-91
2023/04/22 05:20:48;;;;;;;14.63;5.65;;;;;;;;;;4996459;28;20053;-91
2023/04/22 05:23:16;;;;;;;6.38;5.20;;;;;;;;;;4996561;28;20046;-91
2023/04/22 05:25:43;;;;;;;8.05;4.32;;;;;;;;;;4996655;28;20064;-90
2023/04/22 05:28:10;;;;;;;6.07;4.00;;;;;;;;;;5013788;28;20056;-91
2023/04/22 05:30:37;;;;;;;5.45;3.38;;;;;;;;;;4996779;28;20499;-91
2023/04/22 05:33:07;;;;;;;4.38;4.03;;;;;;;;;;4996642;28;20128;-90
2023/04/22 05:35:34;;;;;;;6.80;4.45;;;;;;;;;;5014089;28;20141;-91
2023/04/22 05:38:02;;;;;;;3.42;2.97;;;;;;;;;;4996494;28;20056;-91
2023/04/22 05:40:29;;;;;;;4.43;3.40;;;;;;;;;;5013953;28;20046;-91
2023/04/22 05:42:56;;;;;;;6.78;3.05;;;;;;;;;;4996659;28;20046;-91
2023/04/22 05:45:24;;;;;;;6.95;2.97;;;;;;;;;;4996466;28;20060;-91
2023/04/22 05:47:51;;;;;;;6.25;3.10;;;;;;;;;;5014093;28;20109;-91
2023/04/22 05:50:19;;;;;;;3.38;3.00;;;;;;;;;;4996552;28;20171;-90
2023/04/22 05:52:48;;;;;;;5.22;3.20;;;;;;;;;;4997044;28;20049;-90
2023/04/22 05:55:15;;;;;;;6.72;4.28;;;;;;;;;;5013719;28;20056;-91
2023/04/22 05:57:43;;;;;;;7.50;5.28;;;;;;;;;;5013702;28;20549;-91
2023/04/22 06:00:10;;;;;;;9.32;5.18;;;;;;;;;;5013581;28;20073;-91
2023/04/22 06:02:37;;;;;;;13.65;5.32;;;;;;;;;;4996134;28;20050;-91
2023/04/22 06:05:05;;;;;;;5.38;3.97;;;;;;;;;;4996277;28;20684;-92
2023/04/22 06:07:33;;;;;;;9.25;4.47;;;;;;;;;;5014119;28;20137;-92
2023/04/22 06:10:00;;;;;;;5.90;3.53;;;;;;;;;;4996607;28;20388;-91
2023/04/22 06:12:32;;;;;;;9.07;3.50;;;;;;;;;;4996955;28;20094;-91
2023/04/22 06:14:59;;;;;;;9.75;6.03;;;;;;;;;;5013427;28;20104;-91
2023/04/22 06:17:26;;;;;;;17.45;11.55;;;;;;;;;;4996446;28;20050;-91
2023/04/22 06:19:54;;;;;;;9.90;6.10;;;;;;;;;;4996283;28;20495;-92
2023/04/22 06:22:21;;;;;;;3.90;3.20;;;;;;;;;;4996174;28;20053;-91
2023/04/22 06:24:51;;;;;;;8.68;3.38;;;;;;;;;;4996740;28;20054;-91
2023/04/22 06:27:18;;;;;;;8.48;6.28;;;;;;;;;;5013764;28;20052;-91
2023/04/22 06:29:46;;;;;;;15.95;11.38;;;;;;;;;;4996340;28;20560;-92
2023/04/22 06:32:13;;;;;;;7.50;4.30;;;;;;;;;;5014715;28;20497;-92
2023/04/22 06:34:40;;;;;;;4.72;3.50;;;;;;;;;;5000087;28;20503;-91
2023/04/22 06:37:07;;;;;;;8.80;3.40;;;;;;;;;;5017352;28;20046;-91
2023/04/22 06:39:35;;;;;;;5.53;3.92;;;;;;;;;;5017199;28;20108;-92
2023/04/22 06:42:02;;;;;;;10.55;5.53;;;;;;;;;;5017183;28;20050;-92
2023/04/22 06:44:30;;;;;;;3.90;3.47;;;;;;;;;;5016967;28;20132;-91
2023/04/22 06:46:57;;;;;;;5.85;3.88;;;;;;;;;;4999981;28;20056;-93
2023/04/22 06:49:24;;;;;;;28.50;17.70;;;;;;;;;;5017133;28;20054;-91
2023/04/22 06:51:52;;;;;;;35.03;24.73;;;;;;;;;;4999882;28;20565;-92
2023/04/22 06:54:19;;;;;;;13.77;9.63;;;;;;;;;;4999720;28;20085;-91
2023/04/22 06:56:46;;;;;;;21.30;17.77;;;;;;;;;;4999666;28;20049;-92
2023/04/22 06:59:13;;;;;;;12.43;5.93;;;;;;;;;;4999332;28;20057;-91
2023/04/22 07:01:40;;;;;;;7.70;5.80;;;;;;;;;;4999652;28;20096;-93
2023/04/22 07:04:08;;;;;;;24.30;9.50;;;;;;;;;;5016584;28;20081;-91
2023/04/22 07:06:35;;;;;;;26.42;10.93;;;;;;;;;;4999404;28;20433;-92
2023/04/22 07:09:03;;;;;;;58.83;35.92;;;;;;;;;;5016362;28;20479;-91
2023/04/22 07:11:33;;;;;;;20.10;5.95;;;;;;;;;;4999335;28;20418;-92
2023/04/22 07:14:00;;;;;;;25.42;13.70;;;;;;;;;;5016576;28;20085;-92
2023/04/22 07:16:27;;;;;;;34.75;18.25;;;;;;;;;;4999271;28;20053;-92
2023/04/22 07:18:55;;;;;;;21.65;5.25;;;;;;;;;;4999148;28;20478;-91
2023/04/22 07:21:22;;;;;;;10.20;2.83;;;;;;;;;;5016745;28;20125;-91
2023/04/22 07:23:50;;;;;;;18.95;12.48;;;;;;;;;;5016292;28;20049;-91
2023/04/22 07:26:17;;;;;;;21.45;7.68;;;;;;;;;;4998673;28;20050;-92
2023/04/22 07:28:45;;;;;;;19.30;4.75;;;;;;;;;;4999272;28;20192;-93
2023/04/22 07:31:12;;;;;;;21.00;11.38;;;;;;;;;;5015817;28;20498;-91
2023/04/22 07:33:42;;;;;;;10.07;6.43;;;;;;;;;;4999276;28;20053;-91
2023/04/22 07:36:10;;;;;;;11.27;6.70;;;;;;;;;;5016106;28;20141;-92
2023/04/22 07:38:37;;;;;;;21.27;15.40;;;;;;;;;;5001860;28;20041;-92
2023/04/22 07:41:04;;;;;;;35.67;29.20;;;;;;;;;;5015148;28;20085;-93
2023/04/22 07:43:31;;;;;;;4.95;3.13;;;;;;;;;;5013758;28;20052;-92
2023/04/22 07:45:58;;;;;;;10.18;2.50;;;;;;;;;;5014941;28;20057;-93
2023/04/22 07:48:26;;;;;;;7.10;2.25;;;;;;;;;;5016046;28;20050;-92
2023/04/22 07:50:53;;;;;;;9.65;3.88;;;;;;;;;;5014876;28;20522;-93
2023/04/22 07:53:20;;;;;;;8.73;2.00;;;;;;;;;;5014644;28;20518;-92
2023/04/22 07:55:48;;;;;;;2.63;1.30;;;;;;;;;;5021067;28;20109;-93
2023/04/22 07:58:16;;;;;;;4.00;1.70;;;;;;;;;;5014548;28;20050;-91
2023/04/22 08:00:43;;;;;;;2.47;1.65;;;;;;;;;;5014901;28;20058;-93
2023/04/22 08:03:11;;;;;;;5.85;1.80;;;;;;;;;;5015576;28;20149;-93
2023/04/22 08:05:38;;;;;;;2.40;1.27;;;;;;;;;;5015730;28;20058;-92
2023/04/22 08:08:06;;;;;;;2.53;1.58;;;;;;;;;;5017569;28;20053;-92
2023/04/22 08:10:33;;;;;;;6.50;4.90;;;;;;;;;;5018440;28;20061;-94
2023/04/22 08:13:00;;;;;;;4.78;1.65;;;;;;;;;;5016605;28;20057;-93
2023/04/22 08:15:28;;;;;;;2.42;1.83;;;;;;;;;;5016163;28;20153;-90
2023/04/22 08:17:55;;;;;;;2.60;1.20;;;;;;;;;;5014851;28;20054;-92
2023/04/22 08:20:23;;;;;;;6.10;2.17;;;;;;;;;;5017007;28;20050;-89
2023/04/22 08:22:50;;;;;;;7.28;1.95;;;;;;;;;;5015619;28;20046;-92
2023/04/22 08:25:18;;;;;;;2.10;1.40;;;;;;;;;;5015075;28;20046;-92
2023/04/22 08:27:46;;;;;;;2.15;1.65;;;;;;;;;;5017532;28;20053;-92
2023/04/22 08:30:13;;;;;;;2.58;1.83;;;;;;;;;;5015001;28;20145;-92
2023/04/22 08:32:40;;;;;;;4.70;2.10;;;;;;;;;;5014850;28;20504;-93
2023/04/22 08:35:08;;;;;;;1.75;1.50;;;;;;;;;;5016032;28;20185;-92
2023/04/22 08:37:35;;;;;;;2.13;1.70;;;;;;;;;;5016345;28;20049;-93
2023/04/22 08:40:03;;;;;;;4.78;1.77;;;;;;;;;;5013825;28;20062;-91
2023/04/22 08:42:30;;;;;;;3.60;1.75;;;;;;;;;;5014078;28;20050;-93
2023/04/22 08:44:58;;;;;;;2.15;1.60;;;;;;;;;;5013404;28;20049;-93
2023/04/22 08:47:25;;;;;;;1.58;1.48;;;;;;;;;;5015740;28;20056;-94
2023/04/22 08:49:54;;;;;;;3.65;1.45;;;;;;;;;;5018962;28;20054;-94
2023/04/22 08:52:22;;;;;;;4.10;1.50;;;;;;;;;;5013875;28;20045;-94
2023/04/22 08:54:49;;;;;;;3.17;1.58;;;;;;;;;;5013579;28;20140;-90
2023/04/22 08:57:17;;;;;;;3.83;1.60;;;;;;;;;;5013817;28;20121;-93
2023/04/22 08:59:44;;;;;;;2.33;1.85;;;;;;;;;;5014808;28;20417;-94
2023/04/22 09:02:13;;;;;;;4.07;1.58;;;;;;;;;;5015164;28;20042;-94
2023/04/22 09:04:42;;;;;;;3.25;1.60;;;;;;;;;;5016728;28;20080;-90
2023/04/22 09:07:10;;;;;;;1.52;1.42;;;;;;;;;;5013733;28;20042;-93
2023/04/22 09:09:38;;;;;;;2.38;1.40;;;;;;;;;;5013371;28;20079;-91
2023/04/22 09:12:05;;;;;;;2.97;1.27;;;;;;;;;;5014389;28;20137;-91
2023/04/22 09:14:33;;;;;;;3.38;1.60;;;;;;;;;;5013143;28;20050;-90
2023/04/22 09:17:02;;;;;;;5.10;1.52;;;;;;;;;;5014494;28;20136;-91
2023/04/22 09:19:29;;;;;;;3.00;1.75;;;;;;;;;;5013443;28;20052;-90
2023/04/22 09:21:59;;;;;;;5.93;2.33;;;;;;;;;;5014341;28;20046;-93
2023/04/22 09:24:27;;;;;;;5.03;1.80;;;;;;;;;;5013493;28;20084;-92
2023/04/22 09:26:57;;;;;;;3.42;1.17;;;;;;;;;;5013292;28;20049;-93
2023/04/22 09:29:30;;;;;;;4.82;1.50;;;;;;;;;;5018510;28;20061;-93
2023/04/22 09:31:58;;;;;;;3.05;1.50;;;;;;;;;;5018663;28;20061;-94
2023/04/22 09:34:26;;;;;;;3.45;1.17;;;;;;;;;;5036232;28;20050;-95
2023/04/22 09:36:54;;;;;;;2.78;1.35;;;;;;;;;;5017549;28;20068;-94
2023/04/22 09:39:23;;;;;;;3.22;1.38;;;;;;;;;;5035216;28;20410;-94
2023/04/22 09:41:53;;;;;;;1.33;1.20;;;;;;;;;;5018313;28;20060;-93
2023/04/22 09:44:20;;;;;;;1.42;1.30;;;;;;;;;;5035129;28;20057;-92
2023/04/22 09:46:50;;;;;;;3.83;1.10;;;;;;;;;;5035007;28;20068;-92
2023/04/22 09:49:17;;;;;;;5.50;1.75;;;;;;;;;;5017139;28;20041;-88
2023/04/22 09:51:44;;;;;;;2.85;1.25;;;;;;;;;;5017575;28;20084;-94
2023/04/22 09:54:13;;;;;;;3.35;1.52;;;;;;;;;;5017600;28;20080;-90
2023/04/22 09:56:41;;;;;;;2.70;1.23;;;;;;;;;;5034364;28;20053;-92
2023/04/22 09:59:08;;;;;;;2.25;1.35;;;;;;;;;;5017666;28;20068;-93
2023/04/22 10:01:38;;;;;;;4.07;1.70;;;;;;;;;;5016948;28;20054;-91
2023/04/22 10:04:06;;;;;;;1.95;1.30;;;;;;;;;;5017019;28;20061;-92
2023/04/22 10:06:34;;;;;;;2.45;1.30;;;;;;;;;;5017391;28;20057;-93
2023/04/22 10:09:01;;;;;;;3.30;1.50;;;;;;;;;;5023260;28;20153;-92
2023/04/22 10:11:29;;;;;;;6.28;1.30;;;;;;;;;;5021768;28;20055;-93
2023/04/22 10:13:57;;;;;;;2.25;1.30;;;;;;;;;;5021052;28;20136;-93
2023/04/22 10:16:25;;;;;;;1.77;1.30;;;;;;;;;;5020677;28;20422;-92
2023/04/22 10:18:55;;;;;;;1.42;1.33;;;;;;;;;;5037666;28;20069;-89
2023/04/22 10:21:24;;;;;;;4.30;1.33;;;;;;;;;;5039228;28;20494;-93
2023/04/22 10:23:52;;;;;;;5.75;1.50;;;;;;;;;;5021230;28;20052;-91
2023/04/22 10:26:39;;;;;;;5.90;1.73;;;;;;;;;;5021370;28;20133;-89
2023/04/22 10:29:15;;;;;;;1.88;1.20;;;;;;;;;;5020828;28;20106;-92
2023/04/22 10:31:43;;;;;;;3.78;1.60;;;;;;;;;;5021640;28;20137;-92
2023/04/22 10:34:12;;;;;;;1.85;1.30;;;;;;;;;;5037821;28;20504;-92
2023/04/22 10:37:05;;;;;;;1.92;1.70;;;;;;;;;;5037558;28;20099;-94
2023/04/22 10:39:33;;;;;;;2.70;1.33;;;;;;;;;;5021509;28;20099;-92
2023/04/22 10:42:05;;;;;;;2.10;1.30;;;;;;;;;;5038078;28;20049;-91
2023/04/22 10:44:49;;;;;;;3.05;1.52;;;;;;;;;;5020198;28;20801;-92
2023/04/22 10:47:27;;;;;;;2.42;1.73;;;;;;;;;;5019997;28;20075;-93
2023/04/22 10:50:09;;;;;;;2.25;1.48;;;;;;;;;;5038093;28;20472;-93
2023/04/22 10:52:37;;;;;;;1.50;1.40;;;;;;;;;;5020114;28;20508;-95
2023/04/22 10:55:04;;;;;;;3.65;1.50;;;;;;;;;;5020504;28;20104;-91
2023/04/22 10:57:42;;;;;;;2.00;1.38;;;;;;;;;;5019667;28;20053;-92
2023/04/22 11:00:22;;;;;;;4.20;1.48;;;;;;;;;;5019430;28;20045;-91
2023/04/22 11:02:54;;;;;;;2.10;1.42;;;;;;;;;;5036595;28;20585;-93
2023/04/22 11:05:24;;;;;;;3.93;1.00;;;;;;;;;;5019399;28;20064;-92
2023/04/22 11:07:53;;;;;;;2.72;0.80;;;;;;;;;;5019290;28;20045;-94
2023/04/22 11:10:33;;;;;;;1.60;1.08;;;;;;;;;;5019123;28;20087;-91
2023/04/22 11:13:01;;;;;;;1.85;0.90;;;;;;;;;;5020406;28;20676;-91
2023/04/22 11:15:30;;;;;;;1.40;1.15;;;;;;;;;;5019048;28;20053;-93
2023/04/22 11:17:57;;;;;;;3.00;1.00;;;;;;;;;;5018877;28;20052;-92
2023/04/22 11:20:25;;;;;;;1.27;1.10;;;;;;;;;;5019331;28;20050;-90
2023/04/22 11:22:55;;;;;;;2.20;0.90;;;;;;;;;;5036314;28;20049;-92
2023/04/22 11:25:26;;;;;;;6.38;1.30;;;;;;;;;;5018968;28;20049;-91
2023/04/22 11:27:54;;;;;;;2.95;1.33;;;;;;;;;;5019057;28;20474;-92
2023/04/22 11:30:22;;;;;;;4.35;1.33;;;;;;;;;;5018765;28;20061;-88
2023/04/22 11:32:50;;;;;;;2.95;1.30;;;;;;;;;;5035620;28;20133;-91
2023/04/22 11:35:19;;;;;;;3.22;1.30;;;;;;;;;;5019093;28;20053;-91
2023/04/22 11:37:48;;;;;;;10.20;2.10;;;;;;;;;;5018788;28;20056;-90
2023/04/22 11:40:21;;;;;;;3.28;1.30;;;;;;;;;;5018405;28;20049;-91
2023/04/22 11:42:58;;;;;;;3.88;1.30;;;;;;;;;;5020295;28;20053;-93
2023/04/22 11:45:26;;;;;;;3.67;1.20;;;;;;;;;;5018275;28;20045;-87
2023/04/22 11:47:54;;;;;;;3.47;1.40;;;;;;;;;;5018493;28;20076;-90
2023/04/22 11:50:23;;;;;;;9.07;1.67;;;;;;;;;;5018454;28;20419;-91
2023/04/22 11:52:51;;;;;;;2.63;0.93;;;;;;;;;;5018350;28;20500;-91
2023/04/22 11:55:22;;;;;;;4.60;1.20;;;;;;;;;;5018242;28;20053;-92
2023/04/22 11:57:54;;;;;;;1.98;1.00;;;;;;;;;;5036048;28;20072;-88
2023/04/22 12:00:21;;;;;;;2.17;0.85;;;;;;;;;;5018126;28;20099;-90
2023/04/22 12:02:56;;;;;;;3.50;1.38;;;;;;;;;;5018249;28;20046;-90
2023/04/22 12:05:37;;;;;;;2.05;0.80;;;;;;;;;;5018088;28;20049;-91
2023/04/22 12:08:08;;;;;;;1.73;0.77;;;;;;;;;;5018448;28;20049;-91
2023/04/22 12:10:40;;;;;;;2.05;1.10;;;;;;;;;;5035593;28;20049;-90
2023/04/22 12:13:08;;;;;;;0.95;0.80;;;;;;;;;;5017949;28;20045;-92
2023/04/22 12:15:39;;;;;;;1.38;1.13;;;;;;;;;;5017651;28;20054;-92
2023/04/22 12:18:07;;;;;;;3.03;1.17;;;;;;;;;;5017581;28;20293;-91
2023/04/22 12:20:34;;;;;;;2.78;1.33;;;;;;;;;;5035240;28;20050;-89
2023/04/22 12:23:03;;;;;;;5.80;2.08;;;;;;;;;;5017430;28;20049;-88
2023/04/22 12:25:32;;;;;;;3.47;1.63;;;;;;;;;;5034779;28;20045;-91
2023/04/22 12:28:00;;;;;;;8.23;2.45;;;;;;;;;;5018232;28;20084;-92
2023/04/22 12:30:27;;;;;;;3.92;1.48;;;;;;;;;;5017072;28;20061;-91
2023/04/22 12:32:55;;;;;;;2.22;0.95;;;;;;;;;;5017313;28;20045;-90
2023/04/22 12:35:22;;;;;;;2.88;1.85;;;;;;;;;;5034670;28;20060;-91
2023/04/22 12:37:50;;;;;;;2.35;1.20;;;;;;;;;;5034713;28;20424;-92
2023/04/22 12:40:18;;;;;;;1.17;1.08;;;;;;;;;;5017906;28;20492;-94
2023/04/22 12:42:46;;;;;;;8.48;1.90;;;;;;;;;;5017731;28;20049;-91
2023/04/22 12:45:13;;;;;;;1.95;1.00;;;;;;;;;;5017012;28;20413;-91
2023/04/22 12:47:40;;;;;;;4.15;1.05;;;;;;;;;;5034463;28;20056;-90
2023/04/22 12:50:07;;;;;;;5.30;1.00;;;;;;;;;;5034810;28;20088;-88
2023/04/22 12:52:35;;;;;;;2.33;1.15;;;;;;;;;;5018071;28;20050;-92
2023/04/22 12:55:03;;;;;;;1.10;1.00;;;;;;;;;;5017069;28;20428;-90
2023/04/22 12:57:30;;;;;;;4.63;1.00;;;;;;;;;;5034230;28;20099;-92
2023/04/22 13:00:00;;;;;;;1.73;1.17;;;;;;;;;;5017326;28;20155;-93
2023/04/22 13:02:28;;;;;;;1.42;1.08;;;;;;;;;;5016659;28;20464;-91
2023/04/22 13:04:55;;;;;;;2.88;1.20;;;;;;;;;;5017195;28;20049;-91
2023/04/22 13:07:22;;;;;;;1.65;0.85;;;;;;;;;;5016990;28;20049;-91
2023/04/22 13:09:50;;;;;;;2.03;1.05;;;;;;;;;;5016769;28;20081;-91
2023/04/22 13:12:17;;;;;;;3.53;1.20;;;;;;;;;;5016832;28;20084;-92
2023/04/22 13:14:44;;;;;;;4.72;1.20;;;;;;;;;;5034299;28;20060;-89
2023/04/22 13:17:12;;;;;;;1.00;0.98;;;;;;;;;;5033790;28;20057;-91
2023/04/22 13:19:39;;;;;;;1.00;0.90;;;;;;;;;;5016425;28;20402;-89
2023/04/22 13:22:07;;;;;;;3.53;1.00;;;;;;;;;;5016658;28;20057;-90
2023/04/22 13:24:34;;;;;;;2.08;1.15;;;;;;;;;;5033915;28;20056;-91
2023/04/22 13:27:01;;;;;;;3.70;1.88;;;;;;;;;;5016358;28;20072;-91
2023/04/22 13:29:29;;;;;;;0.70;0.70;;;;;;;;;;5033521;28;20494;-91
2023/04/22 13:31:56;;;;;;;1.10;0.85;;;;;;;;;;5016205;28;20045;-92
2023/04/22 13:34:23;;;;;;;0.70;0.70;;;;;;;;;;5016353;28;20132;-91
2023/04/22 13:36:50;;;;;;;0.82;0.70;;;;;;;;;;5016190;28;20093;-91
2023/04/22 13:39:17;;;;;;;1.05;0.63;;;;;;;;;;5016459;28;20053;-90
2023/04/22 13:41:45;;;;;;;0.73;0.50;;;;;;;;;;5015922;28;20049;-91
2023/04/22 13:44:13;;;;;;;0.85;0.68;;;;;;;;;;5016184;28;20051;-92
2023/04/22 13:46:40;;;;;;;0.60;0.60;;;;;;;;;;5016229;28;20059;-92
2023/04/22 13:49:08;;;;;;;1.17;0.70;;;;;;;;;;5017021;28;20056;-89
2023/04/22 13:51:38;;;;;;;3.00;1.20;;;;;;;;;;5016192;28;20244;-92
2023/04/22 13:54:06;;;;;;;1.00;1.00;;;;;;;;;;5033901;28;20046;-91
2023/04/22 13:56:33;;;;;;;2.00;0.70;;;;;;;;;;5017725;28;20076;-89
2023/04/22 13:59:00;;;;;;;2.80;0.75;;;;;;;;;;5016261;28;20046;-90
2023/04/22 14:01:27;;;;;;;0.55;0.55;;;;;;;;;;5031546;28;20053;-93
2023/04/22 14:03:55;;;;;;;1.92;1.15;;;;;;;;;;5015985;28;20099;-91
2023/04/22 14:06:22;;;;;;;2.50;1.00;;;;;;;;;;5033305;28;20080;-91
2023/04/22 14:08:49;;;;;;;1.15;0.70;;;;;;;;;;5033427;28;20056;-92
2023/04/22 14:11:17;;;;;;;2.38;0.95;;;;;;;;;;5033702;28;20111;-91
2023/04/22 14:13:45;;;;;;;4.43;1.92;;;;;;;;;;5015971;28;20049;-92
2023/04/22 14:16:12;;;;;;;1.83;0.70;;;;;;;;;;5032990;28;20050;-94
2023/04/22 14:18:40;;;;;;;1.27;0.70;;;;;;;;;;5016362;28;20053;-92
2023/04/22 14:21:08;;;;;;;1.45;0.93;;;;;;;;;;5033331;28;20146;-92
2023/04/22 14:23:36;;;;;;;5.47;2.30;;;;;;;;;;5016168;28;20152;-93
2023/04/22 14:26:04;;;;;;;1.85;0.82;;;;;;;;;;5016062;28;20045;-92
2023/04/22 14:28:31;;;;;;;1.73;1.05;;;;;;;;;;5015764;28;20045;-92
2023/04/22 14:30:59;;;;;;;1.05;0.82;;;;;;;;;;5015587;28;20058;-91
2023/04/22 14:33:26;;;;;;;8.15;1.70;;;;;;;;;;5016448;28;20103;-93
2023/04/22 14:35:54;;;;;;;1.63;1.10;;;;;;;;;;5033323;28;20072;-93
2023/04/22 14:38:21;;;;;;;0.85;0.80;;;;;;;;;;5035117;28;20050;-91
2023/04/22 14:40:49;;;;;;;1.45;0.77;;;;;;;;;;5015773;28;20049;-92
2023/04/22 14:43:17;;;;;;;1.20;0.90;;;;;;;;;;5015668;28;20061;-93